createdAt,value
2022-12-13T00:02:40.503Z,101610.84
2022-12-13T00:05:15.066Z,101604.66
2022-12-13T00:08:10.428Z,101616.09
2022-12-13T00:14:41.559Z,101612.03
2022-12-13T00:17:09.866Z,101609.78
2022-12-13T00:19:45.861Z,101606.50
2022-12-13T00:25:05.930Z,101609.44
2022-12-13T00:28:00.965Z,101613.84
2022-12-13T00:30:50.652Z,101614.81
2022-12-13T00:33:25.606Z,101614.03
2022-12-13T00:35:54.343Z,101623.00
2022-12-13T00:38:22.967Z,101617.25
2022-12-13T00:40:53.072Z,101615.16
2022-12-13T00:43:21.678Z,101615.63
2022-12-13T00:45:58.864Z,101625.78
2022-12-13T00:48:27.359Z,101629.72
2022-12-13T00:54:09.283Z,101633.94
2022-12-13T00:57:16.840Z,101634.94
2022-12-13T01:00:38.211Z,101636.25
2022-12-13T01:09:59.988Z,101644.50
2022-12-13T01:12:41.524Z,101649.03
2022-12-13T01:15:10.626Z,101648.53
2022-12-13T01:17:39.007Z,101642.88
2022-12-13T01:20:10.970Z,101643.38
2022-12-13T01:22:39.225Z,101657.88
2022-12-13T01:25:09.704Z,101654.69
2022-12-13T01:27:38.029Z,101646.88
2022-12-13T01:30:06.885Z,101645.22
2022-12-13T01:32:35.358Z,101650.81
2022-12-13T01:35:03.729Z,101657.41
2022-12-13T01:37:37.393Z,101663.84
2022-12-13T01:40:16.325Z,101654.22
2022-12-13T01:42:45.074Z,101656.88
2022-12-13T01:45:32.229Z,101657.81
2022-12-13T01:48:11.023Z,101664.97
2022-12-13T01:51:06.134Z,101672.00
2022-12-13T01:53:47.736Z,101672.91
2022-12-13T01:57:09.626Z,101663.38
2022-12-13T01:59:43.902Z,101667.22
2022-12-13T02:02:15.200Z,101657.84
2022-12-13T02:05:05.913Z,101657.28
2022-12-13T02:07:36.788Z,101663.56
2022-12-13T02:10:07.672Z,101666.28
2022-12-13T02:12:38.516Z,101666.28
2022-12-13T02:15:26.889Z,101668.28
2022-12-13T02:18:17.250Z,101668.59
2022-12-13T02:21:08.159Z,101675.22
2022-12-13T02:24:11.213Z,101683.47
2022-12-13T02:27:02.927Z,101689.91
2022-12-13T02:29:50.573Z,101685.84
2022-12-13T02:33:12.280Z,101687.69
2022-12-13T02:36:21.633Z,101694.16
2022-12-13T02:39:09.858Z,101692.56
2022-12-13T02:41:58.182Z,101702.97
2022-12-13T02:45:09.138Z,101699.41
2022-12-13T02:47:42.930Z,101708.56
2022-12-13T02:50:14.511Z,101707.03
2022-12-13T02:52:47.296Z,101712.59
2022-12-13T02:55:17.781Z,101710.84
2022-12-13T02:57:49.606Z,101717.88
2022-12-13T03:00:20.856Z,101718.72
2022-12-13T03:03:10.659Z,101716.84
2022-12-13T03:06:02.835Z,101714.22
2022-12-13T03:08:44.524Z,101722.09
2022-12-13T03:11:15.116Z,101726.84
2022-12-13T03:14:06.394Z,101719.13
2022-12-13T03:16:55.890Z,101730.59
2022-12-13T03:19:24.666Z,101736.47
2022-12-13T03:21:53.037Z,101736.31
2022-12-13T03:24:22.605Z,101732.84
2022-12-13T03:26:52.990Z,101739.75
2022-12-13T03:29:23.459Z,101737.00
2022-12-13T03:31:52.565Z,101740.47
2022-12-13T03:34:22.247Z,101742.09
2022-12-13T03:36:54.750Z,101740.59
2022-12-13T03:39:24.063Z,101736.53
2022-12-13T03:41:52.752Z,101728.22
2022-12-13T03:44:21.117Z,101733.00
2022-12-13T03:46:49.447Z,101729.72
2022-12-13T03:49:17.834Z,101733.34
2022-12-13T03:51:46.714Z,101732.47
2022-12-13T03:54:14.990Z,101740.59
2022-12-13T03:56:43.239Z,101746.91
2022-12-13T03:59:11.711Z,101738.19
2022-12-13T04:01:40.025Z,101738.97
2022-12-13T04:04:09.414Z,101746.00
2022-12-13T04:06:37.641Z,101741.69
2022-12-13T04:09:05.938Z,101736.63
2022-12-13T04:11:52.618Z,101733.22
2022-12-13T04:14:23.843Z,101731.50
2022-12-13T04:16:53.208Z,101734.19
2022-12-13T04:19:24.353Z,101743.91
2022-12-13T04:21:54.988Z,101732.41
2022-12-13T04:24:31.309Z,101743.13
2022-12-13T04:27:01.781Z,101738.84
2022-12-13T04:29:33.907Z,101728.50
2022-12-13T04:32:04.920Z,101726.06
2022-12-13T04:34:37.615Z,101743.88
2022-12-13T04:37:10.462Z,101744.03
2022-12-13T04:39:38.727Z,101752.88
2022-12-13T04:42:16.861Z,101751.25
2022-12-13T04:44:46.280Z,101761.13
2022-12-13T04:47:14.694Z,101753.25
2022-12-13T04:49:42.968Z,101763.88
2022-12-13T04:52:12.018Z,101764.91
2022-12-13T04:54:55.604Z,101769.38
2022-12-13T04:57:24.717Z,101773.91
2022-12-13T04:59:56.067Z,101779.34
2022-12-13T05:02:33.897Z,101777.72
2022-12-13T05:05:03.145Z,101791.09
2022-12-13T05:07:31.690Z,101789.47
2022-12-13T05:09:59.899Z,101797.53
2022-12-13T05:12:28.353Z,101784.47
2022-12-13T05:14:56.573Z,101790.78
2022-12-13T05:17:25.057Z,101793.59
2022-12-13T05:19:56.042Z,101784.91
2022-12-13T05:22:24.291Z,101791.19
2022-12-13T05:24:52.681Z,101801.75
2022-12-13T05:27:25.220Z,101804.50
2022-12-13T05:30:04.959Z,101801.91
2022-12-13T05:32:44.771Z,101800.13
2022-12-13T05:35:23.157Z,101799.41
2022-12-13T05:37:57.307Z,101812.66
2022-12-13T05:40:27.358Z,101817.09
2022-12-13T05:43:01.579Z,101823.44
2022-12-13T05:45:32.355Z,101813.06
2022-12-13T05:48:01.057Z,101815.84
2022-12-13T05:50:29.580Z,101811.56
2022-12-13T05:52:57.991Z,101814.22
2022-12-13T05:55:26.188Z,101816.78
2022-12-13T05:57:54.451Z,101815.00
2022-12-13T06:00:33.718Z,101815.94
2022-12-13T06:03:03.301Z,101817.66
2022-12-13T06:05:32.812Z,101814.25
2022-12-13T06:08:04.425Z,101820.47
2022-12-13T06:11:10.320Z,101822.34
2022-12-13T06:13:44.332Z,101822.50
2022-12-13T06:16:22.886Z,101828.56
2022-12-13T06:19:02.778Z,101837.25
2022-12-13T06:21:43.533Z,101835.34
2022-12-13T06:24:19.201Z,101838.00
2022-12-13T06:26:47.854Z,101831.97
2022-12-13T06:29:25.208Z,101831.16
2022-12-13T06:32:01.905Z,101838.22
2022-12-13T06:34:34.292Z,101822.56
2022-12-13T06:37:04.029Z,101837.66
2022-12-13T06:39:33.627Z,101840.41
2022-12-13T06:42:04.270Z,101837.84
2022-12-13T06:44:32.658Z,101835.25
2022-12-13T06:47:11.689Z,101841.38
2022-12-13T06:49:43.919Z,101844.06
2022-12-13T06:52:13.772Z,101843.22
2022-12-13T06:54:42.631Z,101838.88
2022-12-13T06:57:12.779Z,101842.31
2022-12-13T06:59:43.823Z,101837.09
2022-12-13T07:02:25.309Z,101848.53
2022-12-13T07:04:55.888Z,101843.41
2022-12-13T07:07:25.528Z,101854.94
2022-12-13T07:09:55.683Z,101855.03
2022-12-13T07:12:24.401Z,101857.75
2022-12-13T07:14:52.760Z,101862.22
2022-12-13T07:17:33.205Z,101870.25
2022-12-13T07:20:10.949Z,101866.00
2022-12-13T07:22:45.186Z,101856.44
2022-12-13T07:25:28.418Z,101861.78
2022-12-13T07:28:03.050Z,101859.97
2022-12-13T07:30:41.472Z,101860.81
2022-12-13T07:33:10.901Z,101860.81
2022-12-13T07:35:39.615Z,101867.91
2022-12-13T07:38:09.018Z,101867.97
2022-12-13T07:40:38.827Z,101861.88
2022-12-13T07:43:07.956Z,101859.28
2022-12-13T07:45:37.394Z,101858.41
2022-12-13T07:48:06.952Z,101860.13
2022-12-13T07:50:37.135Z,101865.41
2022-12-13T07:53:10.198Z,101861.03
2022-12-13T07:55:39.311Z,101860.22
2022-12-13T07:58:09.707Z,101859.38
2022-12-13T08:00:39.704Z,101850.75
2022-12-13T08:03:13.430Z,101849.97
2022-12-13T08:06:03.728Z,101847.47
2022-12-13T08:08:32.691Z,101850.19
2022-12-13T08:11:13.086Z,101849.28
2022-12-13T08:13:42.317Z,101852.84
2022-12-13T08:16:27.492Z,101845.00
2022-12-13T08:19:04.047Z,101845.06
2022-12-13T08:21:58.290Z,101846.00
2022-12-13T08:24:29.324Z,101846.94
2022-12-13T08:27:03.091Z,101850.47
2022-12-13T08:29:36.403Z,101843.44
2022-12-13T08:32:11.307Z,101847.84
2022-12-13T08:34:40.197Z,101852.31
2022-12-13T08:37:08.830Z,101851.56
2022-12-13T08:39:39.397Z,101864.81
2022-12-13T08:42:16.589Z,101870.19
2022-12-13T08:44:51.626Z,101864.16
2022-12-13T08:47:22.553Z,101859.78
2022-12-13T08:49:52.358Z,101869.25
2022-12-13T08:52:23.171Z,101858.66
2022-12-13T08:54:51.984Z,101866.53
2022-12-13T08:57:20.227Z,101872.69
2022-12-13T08:59:48.497Z,101871.06
2022-12-13T09:02:17.399Z,101869.34
2022-12-13T09:04:46.635Z,101874.69
2022-12-13T09:07:15.319Z,101874.75
2022-12-13T09:09:43.788Z,101876.53
2022-12-13T09:12:30.896Z,101871.34
2022-12-13T09:15:01.224Z,101872.38
2022-12-13T09:17:36.735Z,101870.63
2022-12-13T09:20:10.056Z,101871.56
2022-12-13T09:23:02.406Z,101884.75
2022-12-13T09:25:36.783Z,101883.06
2022-12-13T09:28:10.185Z,101884.84
2022-12-13T09:30:41.608Z,101882.28
2022-12-13T09:33:27.975Z,101889.34
2022-12-13T09:35:58.256Z,101881.53
2022-12-13T09:38:29.667Z,101881.53
2022-12-13T09:41:00.514Z,101885.91
2022-12-13T09:43:42.508Z,101887.63
2022-12-13T09:46:27.576Z,101890.31
2022-12-13T09:49:05.840Z,101891.28
2022-12-13T09:51:47.314Z,101893.91
2022-12-13T09:54:22.244Z,101893.03
2022-12-13T09:56:52.316Z,101889.53
2022-12-13T09:59:29.249Z,101893.94
2022-12-13T10:02:03.638Z,101888.75
2022-12-13T10:04:32.775Z,101907.25
2022-12-13T10:07:01.038Z,101905.50
2022-12-13T10:09:29.336Z,101909.03
2022-12-13T10:11:57.609Z,101918.78
2022-12-13T10:14:44.806Z,101913.56
2022-12-13T10:17:20.264Z,101916.22
2022-12-13T10:19:53.480Z,101924.16
2022-12-13T10:22:26.052Z,101926.78
2022-12-13T10:25:04.753Z,101929.38
2022-12-13T10:27:41.238Z,101930.25
2022-12-13T10:30:14.042Z,101933.84
2022-12-13T10:33:06.097Z,101926.84
2022-12-13T10:35:43.347Z,101924.22
2022-12-13T10:38:17.781Z,101928.59
2022-12-13T10:40:46.551Z,101929.50
2022-12-13T10:43:23.336Z,101935.63
2022-12-13T10:46:04.056Z,101936.50
2022-12-13T10:48:38.359Z,101934.81
2022-12-13T10:51:16.369Z,101936.56
2022-12-13T10:53:51.221Z,101926.97
2022-12-13T10:56:22.784Z,101932.22
2022-12-13T10:59:15.009Z,101923.50
2022-12-13T11:01:45.777Z,101925.19
2022-12-13T11:04:30.132Z,101923.34
2022-12-13T11:07:01.482Z,101916.34
2022-12-13T11:09:39.176Z,101918.06
2022-12-13T11:12:17.328Z,101926.88
2022-12-13T11:15:01.932Z,101926.22
2022-12-13T11:17:33.237Z,101916.75
2022-12-13T11:20:08.066Z,101924.69
2022-12-13T11:22:39.083Z,101926.41
2022-12-13T11:25:18.947Z,101925.47
2022-12-13T11:28:31.643Z,101923.72
2022-12-13T11:31:23.855Z,101914.97
2022-12-13T11:34:10.000Z,101919.38
2022-12-13T11:36:59.351Z,101915.91
2022-12-13T11:39:34.213Z,101918.53
2022-12-13T11:42:28.723Z,101916.81
2022-12-13T11:45:30.754Z,101914.25
2022-12-13T11:48:14.417Z,101918.81
2022-12-13T11:50:47.343Z,101921.47
2022-12-13T11:53:24.123Z,101911.84
2022-12-13T11:55:56.706Z,101911.84
2022-12-13T11:59:03.957Z,101908.34
2022-12-13T12:01:54.197Z,101912.78
2022-12-13T12:04:36.291Z,101913.69
2022-12-13T12:07:34.439Z,101913.75
2022-12-13T12:10:15.802Z,101910.31
2022-12-13T12:12:49.933Z,101916.53
2022-12-13T12:15:29.563Z,101919.16
2022-12-13T12:17:58.209Z,101913.06
2022-12-13T12:20:45.072Z,101919.13
2022-12-13T12:23:52.760Z,101924.41
2022-12-13T12:26:32.565Z,101921.78
2022-12-13T12:29:04.115Z,101931.44
2022-12-13T12:31:50.565Z,101928.78
2022-12-13T12:34:38.093Z,101934.91
2022-12-13T12:37:36.626Z,101938.44
2022-12-13T12:40:17.036Z,101938.47
2022-12-13T12:43:27.128Z,101940.34
2022-12-13T12:45:56.975Z,101943.03
2022-12-13T12:49:01.372Z,101942.22
2022-12-13T12:51:34.740Z,101945.75
2022-12-13T12:54:32.949Z,101951.00
2022-12-13T12:57:15.573Z,101952.81
2022-12-13T12:59:50.213Z,101967.69
2022-12-13T13:02:34.556Z,101966.81
2022-12-13T13:05:22.884Z,101971.16
2022-12-13T13:07:59.776Z,101973.72
2022-12-13T13:10:28.790Z,101973.69
2022-12-13T13:13:11.589Z,101978.16
2022-12-13T13:15:41.091Z,101978.25
2022-12-13T13:18:47.909Z,101974.81
2022-12-13T13:21:26.581Z,101986.16
2022-12-13T13:24:10.185Z,101980.81
2022-12-13T13:26:44.439Z,101982.47
2022-12-13T13:29:27.228Z,101983.28
2022-12-13T13:32:06.068Z,101984.16
2022-12-13T13:34:41.388Z,101977.06
2022-12-13T13:37:29.209Z,101984.97
2022-12-13T13:39:59.627Z,101991.06
2022-12-13T13:42:30.250Z,101989.22
2022-12-13T13:45:21.390Z,101984.75
2022-12-13T13:48:14.492Z,101990.88
2022-12-13T13:51:20.396Z,101998.75
2022-12-13T13:54:13.425Z,101985.66
2022-12-13T13:57:06.363Z,101992.69
2022-12-13T13:59:58.782Z,101993.69
2022-12-13T14:02:32.856Z,101995.63
2022-12-13T14:05:16.455Z,101998.41
2022-12-13T14:08:03.584Z,102001.22
2022-12-13T14:10:52.241Z,101996.94
2022-12-13T14:13:50.623Z,102009.09
2022-12-13T14:16:47.790Z,102014.38
2022-12-13T14:19:37.906Z,102018.88
2022-12-13T14:22:31.389Z,102024.38
2022-12-13T14:25:40.614Z,102027.25
2022-12-13T14:28:27.533Z,102038.66
2022-12-13T14:30:58.306Z,102039.47
2022-12-13T14:33:28.216Z,102033.28
2022-12-13T14:36:05.180Z,102045.31
2022-12-13T14:38:33.706Z,102051.31
2022-12-13T14:41:04.126Z,102056.53
2022-12-13T14:43:34.719Z,102067.09
2022-12-13T14:46:08.181Z,102061.97
2022-12-13T14:48:54.434Z,102064.72
2022-12-13T14:51:40.551Z,102066.50
2022-12-13T14:54:24.028Z,102071.81
2022-12-13T14:57:02.740Z,102079.75
2022-12-13T14:59:31.859Z,102081.56
2022-12-13T15:02:06.151Z,102082.38
2022-12-13T15:04:36.979Z,102082.34
2022-12-13T15:07:37.088Z,102077.06
2022-12-13T15:10:21.239Z,102075.25
2022-12-13T15:12:54.859Z,102073.41
2022-12-13T15:15:36.354Z,102077.72
2022-12-13T15:18:19.488Z,102082.09
2022-12-13T15:20:49.383Z,102077.72
2022-12-13T15:23:23.401Z,102088.31
2022-12-13T15:26:00.238Z,102089.28
2022-12-13T15:28:35.465Z,102098.84
2022-12-13T15:31:07.052Z,102099.63
2022-12-13T15:33:39.453Z,102098.69
2022-12-13T15:36:14.161Z,102093.38
2022-12-13T15:38:50.160Z,102095.97
2022-12-13T15:41:21.072Z,102094.25
2022-12-13T15:44:04.355Z,102097.66
2022-12-13T15:46:38.831Z,102095.78
2022-12-13T15:49:37.184Z,102096.50
2022-12-13T15:52:27.414Z,102094.63
2022-12-13T15:55:08.199Z,102090.06
2022-12-13T15:57:50.446Z,102090.75
2022-12-13T16:00:18.585Z,102094.03
2022-12-13T16:03:17.235Z,102105.13
2022-12-13T16:05:55.871Z,102104.88
2022-12-13T16:08:38.243Z,102113.50
2022-12-13T16:11:09.002Z,102108.88
2022-12-13T16:13:39.199Z,102114.00
2022-12-13T16:16:30.974Z,102121.69
2022-12-13T16:19:01.453Z,102122.34
2022-12-13T16:21:31.107Z,102127.31
2022-12-13T16:23:59.290Z,102129.69
2022-12-13T16:26:30.416Z,102139.03
2022-12-13T16:29:00.271Z,102143.06
2022-12-13T16:31:36.486Z,102145.34
2022-12-13T16:34:06.150Z,102140.66
2022-12-13T16:36:34.720Z,102153.50
2022-12-13T16:39:03.236Z,102150.56
2022-12-13T16:41:32.100Z,102153.63
2022-12-13T16:44:03.363Z,102156.63
2022-12-13T16:47:13.038Z,102161.41
2022-12-13T16:49:30.786Z,102160.81
2022-12-13T16:51:59.253Z,102176.16
2022-12-13T16:54:27.757Z,102175.91
2022-12-13T16:56:56.107Z,102178.91
2022-12-13T16:59:26.127Z,102180.25
2022-12-13T17:01:55.185Z,102185.09
2022-12-13T17:04:25.577Z,102187.00
2022-12-13T17:06:55.469Z,102193.44
2022-12-13T17:09:25.966Z,102193.38
2022-12-13T17:11:54.309Z,102199.69
2022-12-13T17:14:22.601Z,102203.28
2022-12-13T17:16:51.048Z,102204.09
2022-12-13T17:19:19.396Z,102206.41
2022-12-13T17:21:47.705Z,102210.13
2022-12-13T17:24:16.334Z,102213.88
2022-12-13T17:26:53.809Z,102217.59
2022-12-13T17:29:22.606Z,102226.44
2022-12-13T17:31:50.899Z,102229.34
2022-12-13T17:34:19.151Z,102234.94
2022-12-13T17:36:47.562Z,102247.63
2022-12-13T17:39:15.837Z,102248.09
2022-12-13T17:41:44.174Z,102249.13
2022-12-13T17:44:23.154Z,102255.53
2022-12-13T17:46:54.862Z,102259.31
2022-12-13T17:49:24.865Z,102261.03
2022-12-13T17:51:55.164Z,102257.09
2022-12-13T17:54:27.133Z,102253.28
2022-12-13T17:56:55.635Z,102259.63
2022-12-13T17:59:24.339Z,102255.41
2022-12-13T18:01:53.015Z,102258.41
2022-12-13T18:04:22.439Z,102252.91
2022-12-13T18:06:53.274Z,102260.34
2022-12-13T18:09:22.291Z,102252.38
2022-12-13T18:11:50.618Z,102250.41
2022-12-13T18:14:18.951Z,102252.53
2022-12-13T18:16:47.700Z,102254.13
2022-12-13T18:19:16.083Z,102253.94
2022-12-13T18:21:44.691Z,102254.97
2022-12-13T18:24:13.723Z,102254.16
2022-12-13T18:26:41.982Z,102248.59
2022-12-13T18:29:10.475Z,102244.06
2022-12-13T18:31:39.047Z,102246.03
2022-12-13T18:34:07.479Z,102245.50
2022-12-13T18:36:36.322Z,102241.50
2022-12-13T18:39:05.328Z,102241.22
2022-12-13T18:41:33.960Z,102240.09
2022-12-13T18:44:07.553Z,102231.63
2022-12-13T18:46:37.689Z,102237.63
2022-12-13T18:49:07.523Z,102233.44
2022-12-13T18:51:36.122Z,102239.69
2022-12-13T18:54:04.592Z,102228.25
2022-12-13T18:56:32.866Z,102234.50
2022-12-13T18:59:01.113Z,102240.66
2022-12-13T19:01:29.527Z,102231.97
2022-12-13T19:03:57.993Z,102232.22
2022-12-13T19:06:29.068Z,102227.63
2022-12-13T19:08:59.336Z,102217.75
2022-12-13T19:11:29.305Z,102209.19
2022-12-13T19:13:58.019Z,102214.41
2022-12-13T19:16:27.729Z,102206.34
2022-12-13T19:18:58.975Z,102193.34
2022-12-13T19:21:28.223Z,102189.03
2022-12-13T19:23:58.507Z,102196.22
2022-12-13T19:26:28.985Z,102209.06
2022-12-13T19:28:59.427Z,102200.06
2022-12-13T19:31:31.588Z,102201.75
2022-12-13T19:34:02.609Z,102205.69
2022-12-13T19:36:32.655Z,102213.75
2022-12-13T19:39:00.968Z,102211.03
2022-12-13T19:41:30.595Z,102211.69
2022-12-13T19:43:59.303Z,102202.50
2022-12-13T19:46:28.059Z,102194.50
2022-12-13T19:48:56.415Z,102194.00
2022-12-13T19:51:24.854Z,102183.06
2022-12-13T19:53:53.187Z,102178.41
2022-12-13T19:56:22.763Z,102172.28
2022-12-13T19:58:52.233Z,102175.75
2022-12-13T20:01:20.601Z,102177.59
2022-12-13T20:03:49.637Z,102176.97
2022-12-13T20:06:21.165Z,102168.13
2022-12-13T20:08:51.145Z,102169.06
2022-12-13T20:11:24.430Z,102159.13
2022-12-13T20:13:55.896Z,102150.06
2022-12-13T20:16:27.797Z,102158.97
2022-12-13T20:19:02.482Z,102158.19
2022-12-13T20:21:31.322Z,102162.72
2022-12-13T20:24:00.056Z,102165.25
2022-12-13T20:26:30.493Z,102167.91
2022-12-13T20:28:59.184Z,102157.25
2022-12-13T20:31:35.921Z,102148.31
2022-12-13T20:34:07.547Z,102152.66
2022-12-13T20:36:35.857Z,102153.22
2022-12-13T20:39:06.367Z,102145.47
2022-12-13T20:41:37.017Z,102153.66
2022-12-13T20:44:07.843Z,102151.13
2022-12-13T20:46:36.436Z,102152.16
2022-12-13T20:49:06.806Z,102149.63
2022-12-13T20:51:36.459Z,102158.56
2022-12-13T20:54:05.545Z,102152.50
2022-12-13T20:56:36.487Z,102148.13
2022-12-13T20:59:06.952Z,102138.28
2022-12-13T21:01:38.821Z,102133.88
2022-12-13T21:04:08.264Z,102134.69
2022-12-13T21:06:39.508Z,102127.34
2022-12-13T21:09:10.511Z,102135.25
2022-12-13T21:11:46.461Z,102134.25
2022-12-13T21:14:22.469Z,102135.03
2022-12-13T21:16:58.806Z,102134.38
2022-12-13T21:19:39.567Z,102139.63
2022-12-13T21:22:08.892Z,102140.56
2022-12-13T21:24:37.177Z,102134.25
2022-12-13T21:27:05.456Z,102133.38
2022-12-13T21:29:33.665Z,102133.38
2022-12-13T21:32:02.082Z,102120.16
2022-12-13T21:34:30.891Z,102123.53
2022-12-13T21:36:59.275Z,102120.78
2022-12-13T21:39:31.736Z,102120.78
2022-12-13T21:42:00.644Z,102117.34
2022-12-13T21:44:29.316Z,102121.88
2022-12-13T21:47:13.592Z,102119.28
2022-12-13T21:49:48.740Z,102115.84
2022-12-13T21:52:17.482Z,102112.31
2022-12-13T21:54:45.770Z,102115.84
2022-12-13T21:57:32.962Z,102107.06
2022-12-13T22:00:01.277Z,102112.44
2022-12-13T22:02:29.629Z,102100.16
2022-12-13T22:04:59.834Z,102109.06
2022-12-13T22:07:30.855Z,102106.56
2022-12-13T22:10:01.002Z,102103.16
2022-12-13T22:12:40.692Z,102106.78
2022-12-13T22:15:11.558Z,102102.38
2022-12-13T22:17:40.755Z,102099.66
2022-12-13T22:20:15.017Z,102098.72
2022-12-13T22:22:49.381Z,102098.88
2022-12-13T22:25:17.701Z,102096.34
2022-12-13T22:27:45.944Z,102104.47
2022-12-13T22:30:14.873Z,102098.34
2022-12-13T22:32:45.184Z,102102.88
2022-12-13T22:35:14.908Z,102096.84
2022-12-13T22:37:43.258Z,102097.63
2022-12-13T22:40:12.088Z,102096.56
2022-12-13T22:42:43.734Z,102086.78
2022-12-13T22:45:16.817Z,102092.97
2022-12-13T22:47:45.083Z,102088.25
2022-12-13T22:50:13.340Z,102086.13
2022-12-13T22:52:42.025Z,102081.69
2022-12-13T22:55:10.814Z,102080.81
2022-12-13T22:57:39.270Z,102078.00
2022-12-13T23:00:11.016Z,102078.81
2022-12-13T23:02:39.395Z,102087.28
2022-12-13T23:05:07.856Z,102093.25
2022-12-13T23:07:39.744Z,102089.22
2022-12-13T23:10:44.431Z,102084.31
2022-12-13T23:13:15.484Z,102083.69
2022-12-13T23:15:49.183Z,102086.94
2022-12-13T23:18:17.862Z,102093.13
2022-12-13T23:20:50.301Z,102081.03
2022-12-13T23:23:18.621Z,102078.75
2022-12-13T23:25:49.075Z,102082.66
2022-12-13T23:28:17.516Z,102086.69
2022-12-13T23:30:45.991Z,102081.59
2022-12-13T23:33:14.274Z,102074.69
2022-12-13T23:35:44.566Z,102074.13
2022-12-13T23:38:12.979Z,102089.31
2022-12-13T23:40:41.414Z,102097.59
2022-12-13T23:43:10.419Z,102102.38
2022-12-13T23:45:41.970Z,102099.06
2022-12-13T23:48:13.231Z,102101.88
2022-12-13T23:50:41.909Z,102097.50
2022-12-13T23:53:10.202Z,102097.97
2022-12-13T23:55:42.023Z,102101.84
2022-12-13T23:58:10.365Z,102104.59
